Flight Track Log - Related Links

Times and Time Zones

All times are in EDT time to prevent confusion due to time zone crossing. See the UAL3776 flight status page for this flight to view local times or setup timezone preferences in your user account.

Time Position Orientation Groundspeed Altitude Reporting Facility
EDT Latitude Longitude Course Direction KTS MPH feet Rate Location/Type
Sat 05:55:24 PM 41.9333 -87.8833 90° East 195 224 2,600  Level Chicago TRACON
Sat 05:56:24 PM 41.9500 -87.8000 75° East 233 268 4,900 2,381 Climbing Chicago TRACON
Sat 05:57:00 PM 42.0425 -87.4195 79° East  Level FlightAware Approximate
Sat 05:57:30 PM 41.9650 -87.7014 78° East 264 304 7,600  Level Chicago Center
Sat 05:58:00 PM 42.0669 -87.2570 78° East  Level FlightAware Approximate
Sat 05:58:32 PM 41.9881 -87.5989 73° East 284 327 10,300  Level Chicago Center
Sat 05:59:00 PM 42.0925 -87.0948 77° East  Level FlightAware Approximate
Sat 05:59:34 PM 42.0142 -87.4919 72° East 298 343 12,000  Level Chicago Center
Sat 06:00:00 PM 42.1167 -86.9324 90° East  Level FlightAware Approximate
Sat 06:00:36 PM 42.0431 -87.3672 73° East 342 394 14,100  Level Chicago Center
Sat 06:01:37 PM 42.0717 -87.2389 73° East 358 412 15,800 1,756 Climbing Chicago Center
Sat 06:02:39 PM 42.1017 -87.1058 73° East 371 427 17,700 1,790 Climbing Chicago Center
Sat 06:03:41 PM 42.1150 -86.9650 83° East 380 437 19,500 1,512 Climbing Chicago Center
Sat 06:04:42 PM 42.1208 -86.7911 87° East 389 448 20,800 1,122 Climbing Chicago Center
Sat 06:05:44 PM 42.1261 -86.6539 87° East 407 468 21,800 1,065 Climbing Chicago Center
Sat 06:06:46 PM 42.1317 -86.4964 87° East 419 482 23,000 1,161 Climbing Chicago Center
Sat 06:07:48 PM 42.1369 -86.3344 87° East 430 495 24,200 1,415 Climbing Chicago Center
Sat 06:08:49 PM 42.1444 -86.1394 87° East 433 498 25,900 1,317 Climbing Chicago Center
Sat 06:09:51 PM 42.1428 -85.9744 91° East 438 504 26,900 829 Climbing Chicago Center
Sat 06:10:52 PM 42.1417 -85.8214 91° East 445 512 27,600 829 Climbing Chicago Center
Sat 06:11:54 PM 42.1400 -85.6517 91° East 456 525 28,600 677 Climbing Chicago Center
Sat 06:12:56 PM 42.1383 -85.4442 91° East 464 534 29,000 195 Climbing Chicago Center
Sat 06:13:57 PM 42.1353 -85.2675 91° East 472 543 29,000  Level Chicago Center
Sat 06:14:59 PM 42.1342 -85.0831 90° East 490 564 29,000  Level Chicago Center
Sat 06:16:00 PM 42.1325 -84.9036 91° East 484 557 29,000  Level Chicago Center
Sat 06:17:02 PM 42.1492 -84.7222 83° East 489 563 29,000  Level Chicago Center
Sat 06:18:03 PM 42.1639 -84.5425 84° East 485 558 29,000  Level Chicago Center
Sat 06:19:05 PM 42.1794 -84.3614 83° East 488 562 29,000  Level Chicago Center
Sat 06:19:48 PM 42.1906 -84.2014 85° East 477 549 29,000  Level Cleveland Center
Sat 06:20:48 PM 42.2047 -84.0172 84° East 487 560 29,000 450 Level Cleveland Center
Sat 06:21:48 PM 42.2203 -83.8331 83° East 487 560 29,900 950 Climbing Cleveland Center
Sat 06:22:48 PM 42.2336 -83.6514 84° East 492 566 30,900 1,050 Climbing Cleveland Center
Sat 06:23:48 PM 42.2486 -83.4808 83° East 497 572 32,000 1,050 Climbing Cleveland Center
Sat 06:24:48 PM 42.2617 -83.2822 85° East 492 566 33,000 500 Climbing Cleveland Center
Sat 06:25:48 PM 42.2742 -83.1061 84° East 497 572 33,000  Level Cleveland Center
Sat 06:26:48 PM 42.3050 -82.9192 77° East 504 580 33,000  Level Cleveland Center
Sat 06:27:48 PM 42.3650 -82.7386 66° East 509 586 33,000  Level Cleveland Center
Sat 06:28:48 PM 42.4264 -82.5633 65° Northeast 514 592 33,000 -400 Level Cleveland Center
Sat 06:29:48 PM 42.4753 -82.3847 70° East 514 592 32,200 -1,300 Descending Cleveland Center
Sat 06:30:48 PM 42.4803 -82.1964 88° East 495 570 30,400 -1,600 Descending Cleveland Center
Sat 06:31:48 PM 42.4828 -82.0050 89° East 500 575 29,000 -800 Descending Cleveland Center
Sat 06:32:48 PM 42.4850 -81.8108 89° East 500 575 28,800 -800 Descending Cleveland Center
Sat 06:33:48 PM 42.4889 -81.6222 88° East 500 575 27,400 -900 Descending Cleveland Center
Sat 06:34:48 PM 42.4925 -81.4364 88° East 493 567 27,000 -200 Descending Cleveland Center
Sat 06:35:48 PM 42.4936 -81.2533 89° East 493 567 27,000  Level Cleveland Center
Sat 06:36:48 PM 42.4947 -81.0675 89° East 493 567 27,000  Level Cleveland Center
Sat 06:37:48 PM 42.4933 -80.8592 90° East 493 567 27,000  Level Cleveland Center
Sat 06:38:48 PM 42.4956 -80.6761 89° East 493 567 27,000  Level Cleveland Center
Sat 06:39:48 PM 42.5039 -80.4903 86° East 488 562 27,000  Level Cleveland Center
Sat 06:40:48 PM 42.5475 -80.3097 72° East 488 562 27,000  Level Cleveland Center
Sat 06:41:48 PM 42.5906 -80.1319 72° East 490 564 27,000  Level Cleveland Center
Sat 06:42:48 PM 42.6378 -79.9511 70° East 501 577 27,000 -650 Level Cleveland Center
Sat 06:43:48 PM 42.6803 -79.7697 72° East 501 577 25,700 -1,950 Descending Cleveland Center
Sat 06:44:48 PM 42.7206 -79.5942 73° East 501 577 23,100 -2,550 Descending Cleveland Center
Sat 06:45:48 PM 42.7606 -79.4153 73° East 496 571 20,600 -2,500 Descending Cleveland Center
Sat 06:46:48 PM 42.7964 -79.2478 74° East 486 559 18,100 -2,450 Descending Cleveland Center
Sat 06:47:48 PM 42.8300 -79.0883 74° East 458 527 15,700 -2,450 Descending Cleveland Center
Sat 06:48:48 PM 42.8675 -78.9347 72° East 439 505 13,200 -1,984 Descending Cleveland Center
Sat 06:49:52 PM 42.9000 -78.7667 75° East 420 483 11,600 -1,023 Descending Buffalo TRACON
Sat 06:50:57 PM 42.9333 -78.6000 75° East 396 456 11,000 -400 Descending Buffalo TRACON
Sat 06:51:52 PM 42.9667 -78.4833 69° East 345 397 10,800 -919 Descending Buffalo TRACON
Sat 06:52:48 PM 42.9811 -78.3839 79° East 333 383 9,300 -1,632 Descending Cleveland Center
Sat 06:53:46 PM 43.0019 -78.2753 75° East 308 354 7,700 -1,221 Descending Cleveland Center
Sat 06:54:41 PM 43.0208 -78.1750 76° East 296 341 7,000 -606 Descending Cleveland Center
Sat 06:55:35 PM 43.0503 -78.0886 65° Northeast 260 299 6,600 -835 Descending Cleveland Center
Sat 06:56:36 PM 43.0858 -78.0078 59° Northeast 247 284 5,400 -1,140 Descending Cleveland Center
Sat 06:57:36 PM 43.1236 -77.9264 58° Northeast 258 297 4,300 -1,091 Descending Cleveland Center
Sat 06:58:37 PM 43.1592 -77.8425 60° Northeast 234 269 3,200 -1,082 Descending Cleveland Center

Login

Don't have an account? Register now (free) for customized features, flight alerts, and more!